createdAt,value
2023-03-14T00:01:25.023Z,0.30
2023-03-14T00:05:08.020Z,0.20
2023-03-14T00:08:50.199Z,0.30
2023-03-14T00:12:33.006Z,0.82
2023-03-14T00:16:14.845Z,0.73
2023-03-14T00:19:56.710Z,0.68
2023-03-14T00:23:40.302Z,0.95
2023-03-14T00:27:22.047Z,0.73
2023-03-14T00:31:09.049Z,0.70
2023-03-14T00:34:50.956Z,1.20
2023-03-14T00:38:33.902Z,0.80
2023-03-14T00:42:15.698Z,1.33
2023-03-14T00:45:58.286Z,0.88
2023-03-14T00:49:40.056Z,0.73
2023-03-14T00:53:22.154Z,0.80
2023-03-14T00:57:03.993Z,0.80
2023-03-14T01:00:46.565Z,0.50
2023-03-14T01:04:28.292Z,1.10
2023-03-14T01:08:10.138Z,0.70
2023-03-14T01:11:51.986Z,0.70
2023-03-14T01:15:38.447Z,1.00
2023-03-14T01:19:20.234Z,0.97
2023-03-14T01:23:01.998Z,1.05
2023-03-14T01:26:43.794Z,1.17
2023-03-14T01:30:25.526Z,1.65
2023-03-14T01:34:07.309Z,1.30
2023-03-14T01:37:49.046Z,0.82
2023-03-14T01:41:30.832Z,1.08
2023-03-14T01:45:50.233Z,1.15
2023-03-14T01:49:36.902Z,1.10
2023-03-14T01:53:22.235Z,1.30
2023-03-14T01:57:13.320Z,1.00
2023-03-14T02:00:58.322Z,0.90
2023-03-14T02:04:40.812Z,1.05
2023-03-14T02:08:23.969Z,1.05
2023-03-14T02:12:08.471Z,1.50
2023-03-14T02:15:50.878Z,1.10
2023-03-14T02:20:08.728Z,1.08
2023-03-14T02:24:12.067Z,1.45
2023-03-14T02:27:54.484Z,1.58
2023-03-14T02:31:36.518Z,1.65
2023-03-14T02:35:24.825Z,1.15
2023-03-14T02:39:16.685Z,3.60
2023-03-14T02:42:58.561Z,1.60
2023-03-14T02:46:40.280Z,2.00
2023-03-14T02:50:25.840Z,1.33
2023-03-14T02:54:07.565Z,1.33
2023-03-14T02:57:49.410Z,1.38
2023-03-14T03:01:31.225Z,2.63
2023-03-14T03:05:12.988Z,1.20
2023-03-14T03:08:54.822Z,1.90
2023-03-14T03:12:36.575Z,1.40
2023-03-14T03:16:18.386Z,1.35
2023-03-14T03:20:00.184Z,1.45
2023-03-14T03:23:41.917Z,1.30
2023-03-14T03:27:23.674Z,1.08
2023-03-14T03:31:10.712Z,1.35
2023-03-14T03:34:52.644Z,1.80
2023-03-14T03:38:34.428Z,1.30
2023-03-14T03:42:16.181Z,1.30
2023-03-14T03:45:57.996Z,1.40
2023-03-14T03:49:39.781Z,1.52
2023-03-14T03:53:32.897Z,1.17
2023-03-14T03:57:15.812Z,1.00
2023-03-14T04:00:57.633Z,1.00
2023-03-14T04:04:40.976Z,1.13
2023-03-14T04:08:22.961Z,1.77
2023-03-14T04:12:04.702Z,1.58
2023-03-14T04:15:46.454Z,1.25
2023-03-14T04:19:28.239Z,1.48
2023-03-14T04:23:10.171Z,1.77
2023-03-14T04:26:51.971Z,1.27
2023-03-14T04:30:33.711Z,1.85
2023-03-14T04:34:15.473Z,1.23
2023-03-14T04:37:57.358Z,1.70
2023-03-14T04:41:39.209Z,1.40
2023-03-14T04:45:21.045Z,1.10
2023-03-14T04:49:02.806Z,1.25
2023-03-14T04:52:44.523Z,1.00
2023-03-14T04:56:26.504Z,2.30
2023-03-14T05:00:09.527Z,1.55
2023-03-14T05:03:51.386Z,1.40
2023-03-14T05:07:33.172Z,1.27
2023-03-14T05:11:15.046Z,2.35
2023-03-14T05:14:56.774Z,2.00
2023-03-14T05:18:39.143Z,1.83
2023-03-14T05:22:20.862Z,1.50
2023-03-14T05:26:02.689Z,2.13
2023-03-14T05:29:44.396Z,1.38
2023-03-14T05:33:26.162Z,1.55
2023-03-14T05:37:08.100Z,1.40
2023-03-14T05:40:49.876Z,1.52
2023-03-14T05:44:31.617Z,1.73
2023-03-14T05:48:13.604Z,1.10
2023-03-14T05:51:55.381Z,1.83
2023-03-14T05:55:37.148Z,1.52
2023-03-14T05:59:18.903Z,1.70
2023-03-14T06:03:00.707Z,2.13
2023-03-14T06:06:42.614Z,1.63
2023-03-14T06:10:24.407Z,2.10
2023-03-14T06:14:06.166Z,2.05
2023-03-14T06:17:47.998Z,1.52
2023-03-14T06:21:29.970Z,1.95
2023-03-14T06:25:11.775Z,1.55
2023-03-14T06:28:54.738Z,1.73
2023-03-14T06:32:36.582Z,1.40
2023-03-14T06:36:18.446Z,1.85
2023-03-14T06:40:00.241Z,1.77
2023-03-14T06:43:42.062Z,1.33
2023-03-14T06:47:23.897Z,2.08
2023-03-14T06:51:05.942Z,1.70
2023-03-14T06:54:47.714Z,1.70
2023-03-14T06:58:29.470Z,2.13
2023-03-14T07:02:13.481Z,1.40
2023-03-14T07:05:55.904Z,1.58
2023-03-14T07:09:37.640Z,1.67
2023-03-14T07:13:19.484Z,1.40
2023-03-14T07:17:01.241Z,1.42
2023-03-14T07:20:42.960Z,1.40
2023-03-14T07:24:24.810Z,1.30
2023-03-14T07:28:06.619Z,1.63
2023-03-14T07:31:48.593Z,1.38
2023-03-14T07:35:30.476Z,1.70
2023-03-14T07:39:12.228Z,1.42
2023-03-14T07:42:56.187Z,2.30
2023-03-14T07:46:38.046Z,1.10
2023-03-14T07:50:20.236Z,1.30
2023-03-14T07:54:02.038Z,1.35
2023-03-14T07:57:43.829Z,1.08
2023-03-14T08:01:25.582Z,0.90
2023-03-14T08:05:07.890Z,1.02
2023-03-14T08:08:49.966Z,0.95
2023-03-14T08:12:33.306Z,0.77
2023-03-14T08:16:15.148Z,0.68
2023-03-14T08:19:57.186Z,1.15
2023-03-14T08:23:39.297Z,0.75
2023-03-14T08:27:21.135Z,0.80
2023-03-14T08:31:03.746Z,1.25
2023-03-14T08:34:45.622Z,0.80
2023-03-14T08:38:28.175Z,0.80
2023-03-14T08:42:09.948Z,0.93
2023-03-14T08:45:51.848Z,0.50
2023-03-14T08:49:33.628Z,1.25
2023-03-14T08:53:15.476Z,1.08
2023-03-14T08:56:57.327Z,0.90
2023-03-14T09:00:39.229Z,0.90
2023-03-14T09:04:21.338Z,0.90
2023-03-14T09:08:03.237Z,0.93
2023-03-14T09:11:45.003Z,1.08
2023-03-14T09:15:26.858Z,0.80
2023-03-14T09:19:08.637Z,1.10
2023-03-14T09:22:50.409Z,0.98
2023-03-14T09:26:32.642Z,0.90
2023-03-14T09:30:14.740Z,0.80
2023-03-14T09:33:57.029Z,0.80
2023-03-14T09:37:40.063Z,0.40
2023-03-14T09:41:26.323Z,0.40
2023-03-14T09:45:18.496Z,0.45
2023-03-14T09:49:00.567Z,0.50
2023-03-14T09:52:47.495Z,0.60
2023-03-14T09:56:33.059Z,0.57
2023-03-14T10:00:18.641Z,0.60
2023-03-14T10:04:24.332Z,0.43
2023-03-14T10:08:06.644Z,0.40
2023-03-14T10:11:48.464Z,0.35
2023-03-14T10:15:36.927Z,0.20
2023-03-14T10:19:19.070Z,0.30
2023-03-14T10:23:19.028Z,0.40
2023-03-14T10:27:03.439Z,0.40
2023-03-14T10:30:46.834Z,0.30
2023-03-14T10:34:38.081Z,0.50
2023-03-14T10:38:19.964Z,0.30
2023-03-14T10:42:13.181Z,0.50
2023-03-14T10:46:07.858Z,0.30
2023-03-14T10:49:49.937Z,0.73
2023-03-14T10:54:02.075Z,0.40
2023-03-14T10:57:44.889Z,0.82
2023-03-14T11:01:33.288Z,0.40
2023-03-14T11:05:17.888Z,0.70
2023-03-14T11:09:13.828Z,0.47
2023-03-14T11:13:16.412Z,0.40
2023-03-14T11:17:10.917Z,0.80
2023-03-14T11:21:10.458Z,0.77
2023-03-14T11:24:59.412Z,0.40
2023-03-14T11:28:46.632Z,0.35
2023-03-14T11:32:38.074Z,0.30
2023-03-14T11:36:34.113Z,0.70
2023-03-14T11:40:19.219Z,0.60
2023-03-14T11:44:05.868Z,0.40
2023-03-14T11:47:55.016Z,0.32
2023-03-14T11:51:40.033Z,0.40
2023-03-14T11:55:28.706Z,0.35
2023-03-14T11:59:25.739Z,0.40
2023-03-14T12:03:25.578Z,0.30
2023-03-14T12:07:25.299Z,0.20
2023-03-14T12:11:12.509Z,0.40
2023-03-14T12:15:06.235Z,0.10
2023-03-14T12:18:48.077Z,0.30
2023-03-14T12:22:31.948Z,0.10
2023-03-14T12:26:13.691Z,0.30
2023-03-14T12:30:03.235Z,0.38
2023-03-14T12:33:46.399Z,0.30
2023-03-14T12:37:38.207Z,0.40
2023-03-14T12:41:47.440Z,0.30
2023-03-14T12:45:38.165Z,0.40
2023-03-14T12:49:20.177Z,0.15
2023-03-14T12:53:11.164Z,0.43
2023-03-14T12:57:19.113Z,0.13
2023-03-14T13:01:03.286Z,0.20
2023-03-14T13:04:49.294Z,0.10
2023-03-14T13:08:49.382Z,0.40
2023-03-14T13:12:59.269Z,0.10
2023-03-14T13:16:41.067Z,0.20
2023-03-14T13:20:37.625Z,0.32
2023-03-14T13:24:25.041Z,0.25
2023-03-14T13:28:06.838Z,0.50
2023-03-14T13:31:50.530Z,0.65
2023-03-14T13:35:47.436Z,0.43
2023-03-14T13:39:30.411Z,0.30
2023-03-14T13:43:17.020Z,0.60
2023-03-14T13:47:04.046Z,0.50
2023-03-14T13:50:50.959Z,0.57
2023-03-14T13:54:32.998Z,0.50
2023-03-14T13:58:31.162Z,0.38
2023-03-14T14:02:18.495Z,0.50
2023-03-14T14:06:00.595Z,0.50
2023-03-14T14:09:46.578Z,0.65
2023-03-14T14:13:31.011Z,0.70
2023-03-14T14:17:16.761Z,0.50
2023-03-14T14:20:58.886Z,0.55
2023-03-14T14:24:41.412Z,0.77
2023-03-14T14:28:32.579Z,1.05
2023-03-14T14:32:15.939Z,1.17
2023-03-14T14:36:01.164Z,1.70
2023-03-14T14:39:42.994Z,1.73
2023-03-14T14:43:28.114Z,1.75
2023-03-14T14:47:19.266Z,1.40
2023-03-14T14:51:04.077Z,1.77
2023-03-14T14:54:54.939Z,1.65
2023-03-14T14:58:39.291Z,1.92
2023-03-14T15:02:31.798Z,1.67
2023-03-14T15:06:15.811Z,1.70
2023-03-14T15:09:57.703Z,1.38
2023-03-14T15:13:39.587Z,1.77
2023-03-14T15:17:21.359Z,1.05
2023-03-14T15:21:03.225Z,1.40
2023-03-14T15:24:45.558Z,1.83
2023-03-14T15:28:29.255Z,1.88
2023-03-14T15:32:16.925Z,2.13
2023-03-14T15:35:58.854Z,2.50
2023-03-14T15:39:40.944Z,1.90
2023-03-14T15:43:23.005Z,1.98
2023-03-14T15:47:04.838Z,1.35
2023-03-14T15:50:46.629Z,1.98
2023-03-14T15:54:29.324Z,1.48
2023-03-14T15:58:18.298Z,1.52
2023-03-14T16:02:01.137Z,1.20
2023-03-14T16:05:42.941Z,1.33
2023-03-14T16:09:25.781Z,1.67
2023-03-14T16:13:07.584Z,1.60
2023-03-14T16:16:49.371Z,1.92
2023-03-14T16:20:38.710Z,1.60
2023-03-14T16:24:27.438Z,1.73
2023-03-14T16:28:11.398Z,2.15
2023-03-14T16:31:53.480Z,1.50
2023-03-14T16:35:36.456Z,1.58
2023-03-14T16:39:19.270Z,2.03
2023-03-14T16:43:15.692Z,1.60
2023-03-14T16:46:57.991Z,1.20
2023-03-14T16:50:41.121Z,1.65
2023-03-14T16:54:22.887Z,1.83
2023-03-14T16:58:04.644Z,1.25
2023-03-14T17:01:46.733Z,1.52
2023-03-14T17:05:28.498Z,1.35
2023-03-14T17:09:10.241Z,0.88
2023-03-14T17:12:52.010Z,1.63
2023-03-14T17:16:33.927Z,2.72
2023-03-14T17:20:17.459Z,4.03
2023-03-14T17:23:59.302Z,4.97
2023-03-14T17:27:41.097Z,4.00
2023-03-14T17:31:24.064Z,4.53
2023-03-14T17:35:06.177Z,4.22
2023-03-14T17:38:48.229Z,4.10
2023-03-14T17:42:31.397Z,4.22
2023-03-14T17:46:15.111Z,2.55
2023-03-14T17:49:57.024Z,1.48
2023-03-14T17:53:39.206Z,1.33
2023-03-14T17:57:20.963Z,1.05
2023-03-14T18:01:15.113Z,1.98
2023-03-14T18:04:57.044Z,1.50
2023-03-14T18:08:42.596Z,1.90
2023-03-14T18:12:24.360Z,2.28
2023-03-14T18:16:07.419Z,1.77
2023-03-14T18:19:49.435Z,2.60
2023-03-14T18:23:31.220Z,2.72
2023-03-14T18:27:14.466Z,3.65
2023-03-14T18:31:11.494Z,4.28
2023-03-14T18:34:53.281Z,4.35
2023-03-14T18:38:35.466Z,5.82
2023-03-14T18:42:17.242Z,4.55
2023-03-14T18:46:00.153Z,3.55
2023-03-14T18:49:41.932Z,4.13
2023-03-14T18:53:28.331Z,4.50
2023-03-14T18:57:10.102Z,4.27
2023-03-14T19:00:51.835Z,3.05
2023-03-14T19:04:33.605Z,2.83
2023-03-14T19:08:15.412Z,3.40
2023-03-14T19:11:57.213Z,3.25
2023-03-14T19:15:38.981Z,2.58
2023-03-14T19:19:21.244Z,2.70
2023-03-14T19:23:03.339Z,2.40
2023-03-14T19:26:45.178Z,1.92
2023-03-14T19:30:27.689Z,2.90
2023-03-14T19:34:09.460Z,3.38
2023-03-14T19:37:51.336Z,2.83
2023-03-14T19:41:34.328Z,3.30
2023-03-14T19:45:16.113Z,3.33
2023-03-14T19:48:57.921Z,2.80
2023-03-14T19:52:43.856Z,3.00
2023-03-14T19:56:25.678Z,2.40
2023-03-14T20:00:17.263Z,1.55
2023-03-14T20:03:59.172Z,0.73
2023-03-14T20:07:41.651Z,0.43
2023-03-14T20:11:23.401Z,0.98
2023-03-14T20:15:06.092Z,0.50
2023-03-14T20:18:47.953Z,0.73
2023-03-14T20:22:32.970Z,1.20
2023-03-14T20:26:14.755Z,0.63
2023-03-14T20:29:57.325Z,0.93
2023-03-14T20:33:39.138Z,1.15
2023-03-14T20:37:24.564Z,1.10
2023-03-14T20:41:08.013Z,1.27
2023-03-14T20:44:49.724Z,1.30
2023-03-14T20:48:32.646Z,1.35
2023-03-14T20:52:14.468Z,0.63
2023-03-14T20:55:57.402Z,1.05
2023-03-14T20:59:39.354Z,1.67
2023-03-14T21:03:23.159Z,1.50
2023-03-14T21:07:05.024Z,1.35
2023-03-14T21:10:48.275Z,1.20
2023-03-14T21:14:30.005Z,1.00
2023-03-14T21:18:11.869Z,1.35
2023-03-14T21:21:53.674Z,0.90
2023-03-14T21:25:36.123Z,0.55
2023-03-14T21:33:01.131Z,0.80
2023-03-14T21:36:43.259Z,0.77
2023-03-14T21:40:25.412Z,0.80
2023-03-14T21:44:07.126Z,0.90
2023-03-14T21:47:48.963Z,0.82
2023-03-14T21:51:31.375Z,1.10
2023-03-14T21:55:20.089Z,1.02
2023-03-14T21:59:01.851Z,1.40
2023-03-14T22:02:58.401Z,1.00
2023-03-14T22:06:49.340Z,0.80
2023-03-14T22:10:31.266Z,0.82
2023-03-14T22:14:12.984Z,0.90
2023-03-14T22:17:54.745Z,0.63
2023-03-14T22:21:36.481Z,1.20
2023-03-14T22:25:18.964Z,1.00
2023-03-14T22:29:00.722Z,0.95
2023-03-14T22:32:42.489Z,2.10
2023-03-14T22:36:24.365Z,1.48
2023-03-14T22:40:06.802Z,1.80
2023-03-14T22:43:49.964Z,1.63
2023-03-14T22:47:31.736Z,1.30
2023-03-14T22:51:14.667Z,1.95
2023-03-14T22:54:56.433Z,2.25
2023-03-14T22:58:38.681Z,1.58
2023-03-14T23:02:20.485Z,1.67
2023-03-14T23:06:04.480Z,1.50
2023-03-14T23:09:46.234Z,1.73
2023-03-14T23:13:28.543Z,1.40
2023-03-14T23:17:10.411Z,1.45
2023-03-14T23:20:52.136Z,2.00
2023-03-14T23:24:33.879Z,1.25
2023-03-14T23:28:15.685Z,1.48
2023-03-14T23:31:57.482Z,1.30
2023-03-14T23:35:39.289Z,1.83
2023-03-14T23:39:21.146Z,1.63
2023-03-14T23:43:02.940Z,1.40
2023-03-14T23:46:44.681Z,1.50
2023-03-14T23:50:26.425Z,1.17
2023-03-14T23:54:08.154Z,1.52
2023-03-14T23:57:49.875Z,1.60
